Pagina principale
METAR-TAF:

METAR-TAF

Aeroporti :

Batajnica, Serbia

latitudine: 44-56-07N, longitudine: 020-15-27E, altezza: 86 m

Osservazione

Il bollettino è stato emesso 16 minuti fa, alle 23:30 UTC
Vento 1 kt da ovest/sud-ovest
Temperature 12°C
Umidità 88%
Pressione 1018 hPa
Visibilità 10 km o più
nessuna nube inferiore a 1500 m e nessun cumulonembo

METAR: LYBT 142330Z 24001KT CAVOK 12/10 Q1018 NOSIG

Ora: 01:46 (23:46 UTC)

Previsione

Il bollettino è stato emesso 46 minuti fa, alle 23:00 UTC
Previsione valida dal 15 alle 00 UTC al 15 alle 24 UTC
Vento 8 kt da ovest/nord-ovest
Visibilità 10 km o più
nessuna nube inferiore a 1500 m e nessun cumulonembo
Temporaneamente
dal 15 alle 09 UTC al 15 alle 15 UTC
Vento 12 kt da nord

TAF: LYBT 142300Z 1500/1524 29008KT CAVOK TX25/1513Z TN12/1503Z TEMPO 1509/1515 35012KT

Osservazioni e previsioni meteorologiche di più di 4000 aeroporti (messaggi METAR e TAF).

Le stazioni disponibili sono rappresentate dai dischi gialli e rossi sulla carta.

Puntare il mouse per vedere il nome della stazione.

Clicca sopra per visualizzare le osservazioni e previsioni meteorologiche.

Per cambiare la mappa : fare clic sui pulsanti verdi con una croce nera per ingrandire, il pulsante verde con un trattino per diminuire, o sulla freccia verde per le mappe adiacenti.


METAR-TAF: